createdAt,value
2022-10-09T00:01:28.064Z,5.60
2022-10-09T00:03:55.650Z,4.80
2022-10-09T00:06:27.296Z,5.55
2022-10-09T00:08:54.235Z,5.28
2022-10-09T00:11:22.333Z,4.95
2022-10-09T00:13:49.530Z,5.38
2022-10-09T00:16:17.168Z,4.80
2022-10-09T00:18:44.179Z,6.07
2022-10-09T00:21:18.777Z,5.63
2022-10-09T00:23:45.894Z,5.45
2022-10-09T00:26:12.829Z,6.32
2022-10-09T00:28:39.716Z,5.28
2022-10-09T00:31:07.555Z,5.38
2022-10-09T00:33:34.978Z,4.93
2022-10-09T00:36:09.322Z,5.60
2022-10-09T00:38:36.107Z,4.82
2022-10-09T00:41:03.270Z,5.13
2022-10-09T00:43:47.191Z,5.40
2022-10-09T00:46:23.260Z,5.38
2022-10-09T00:48:54.314Z,5.72
2022-10-09T00:51:21.113Z,4.90
2022-10-09T00:53:47.962Z,5.05
2022-10-09T00:56:14.882Z,4.90
2022-10-09T00:58:41.717Z,4.85
2022-10-09T01:01:08.688Z,5.32
2022-10-09T01:03:35.541Z,5.15
2022-10-09T01:06:02.314Z,5.25
2022-10-09T01:08:38.421Z,5.53
2022-10-09T01:11:12.576Z,5.78
2022-10-09T01:13:45.942Z,5.13
2022-10-09T01:16:23.690Z,5.45
2022-10-09T01:18:53.652Z,5.78
2022-10-09T01:21:23.508Z,5.72
2022-10-09T01:24:11.614Z,5.47
2022-10-09T01:26:44.215Z,5.07
2022-10-09T01:29:11.599Z,5.28
2022-10-09T01:31:41.644Z,4.82
2022-10-09T01:34:09.085Z,4.80
2022-10-09T01:36:36.620Z,5.45
2022-10-09T01:39:04.939Z,5.50
2022-10-09T01:41:31.773Z,4.88
2022-10-09T01:43:58.676Z,5.22
2022-10-09T01:46:30.024Z,4.85
2022-10-09T01:49:15.283Z,5.47
2022-10-09T01:51:52.272Z,4.90
2022-10-09T01:54:23.116Z,5.00
2022-10-09T01:59:17.235Z,5.57
2022-10-09T02:01:45.248Z,5.05
2022-10-09T02:04:13.366Z,5.00
2022-10-09T02:06:41.577Z,5.65
2022-10-09T02:09:10.066Z,4.70
2022-10-09T02:11:37.967Z,5.15
2022-10-09T02:14:04.888Z,5.00
2022-10-09T02:16:39.215Z,4.75
2022-10-09T02:19:16.441Z,5.82
2022-10-09T02:21:46.537Z,5.15
2022-10-09T02:24:20.767Z,5.32
2022-10-09T02:26:47.560Z,5.45
2022-10-09T02:29:15.100Z,5.57
2022-10-09T02:31:42.719Z,5.25
2022-10-09T02:34:14.338Z,5.00
2022-10-09T02:36:41.100Z,4.57
2022-10-09T02:39:08.472Z,4.88
2022-10-09T02:41:35.467Z,4.72
2022-10-09T02:44:02.867Z,5.03
2022-10-09T02:46:29.905Z,5.60
2022-10-09T02:48:56.760Z,4.68
2022-10-09T02:51:23.584Z,5.28
2022-10-09T02:53:51.841Z,5.10
2022-10-09T02:56:18.651Z,4.78
2022-10-09T02:58:45.854Z,5.00
2022-10-09T03:01:12.900Z,5.45
2022-10-09T03:03:39.779Z,4.80
2022-10-09T03:06:11.070Z,5.00
2022-10-09T03:08:39.027Z,4.70
2022-10-09T03:11:06.153Z,5.30
2022-10-09T03:13:33.362Z,4.38
2022-10-09T03:16:04.666Z,5.20
2022-10-09T03:18:31.859Z,5.25
2022-10-09T03:20:58.870Z,5.47
2022-10-09T03:23:26.113Z,5.00
2022-10-09T03:26:00.508Z,4.15
2022-10-09T03:28:27.832Z,4.75
2022-10-09T03:30:55.077Z,5.05
2022-10-09T03:33:22.486Z,5.10
2022-10-09T03:35:49.868Z,4.85
2022-10-09T03:38:17.024Z,4.43
2022-10-09T03:40:44.196Z,4.97
2022-10-09T03:43:11.080Z,4.72
2022-10-09T03:45:41.357Z,4.63
2022-10-09T03:48:08.609Z,4.90
2022-10-09T03:50:35.527Z,4.85
2022-10-09T03:53:02.353Z,4.65
2022-10-09T03:55:29.201Z,4.72
2022-10-09T03:57:56.004Z,4.95
2022-10-09T04:00:22.986Z,4.32
2022-10-09T04:02:50.052Z,5.35
2022-10-09T04:05:17.324Z,4.65
2022-10-09T04:07:44.476Z,4.75
2022-10-09T04:10:11.303Z,4.47
2022-10-09T04:12:38.142Z,4.18
2022-10-09T04:15:05.249Z,5.30
2022-10-09T04:17:33.105Z,5.03
2022-10-09T04:20:00.095Z,4.63
2022-10-09T04:22:26.951Z,4.30
2022-10-09T04:24:53.756Z,4.55
2022-10-09T04:27:20.565Z,4.80
2022-10-09T04:29:47.459Z,4.18
2022-10-09T04:32:14.245Z,4.43
2022-10-09T04:34:41.147Z,4.47
2022-10-09T04:37:07.867Z,4.00
2022-10-09T04:39:34.660Z,4.38
2022-10-09T04:42:01.465Z,4.95
2022-10-09T04:44:28.343Z,5.13
2022-10-09T04:46:55.178Z,4.50
2022-10-09T04:49:21.948Z,4.15
2022-10-09T04:51:48.713Z,4.65
2022-10-09T04:54:15.493Z,4.45
2022-10-09T04:56:42.269Z,5.10
2022-10-09T04:59:09.192Z,4.28
2022-10-09T05:01:38.438Z,3.90
2022-10-09T05:04:06.216Z,4.03
2022-10-09T05:06:33.003Z,3.65
2022-10-09T05:08:59.874Z,4.47
2022-10-09T05:11:26.783Z,4.35
2022-10-09T05:13:54.690Z,3.60
2022-10-09T05:16:23.135Z,4.40
2022-10-09T05:18:52.953Z,4.75
2022-10-09T05:21:20.026Z,4.25
2022-10-09T05:23:47.583Z,4.00
2022-10-09T05:26:16.256Z,4.13
2022-10-09T05:28:43.561Z,3.90
2022-10-09T05:31:15.282Z,4.22
2022-10-09T05:33:42.089Z,4.10
2022-10-09T05:36:08.991Z,4.90
2022-10-09T05:38:35.852Z,4.53
2022-10-09T05:41:04.262Z,5.20
2022-10-09T05:43:35.179Z,4.60
2022-10-09T05:46:09.286Z,4.35
2022-10-09T05:48:36.543Z,5.07
2022-10-09T05:51:14.083Z,4.38
2022-10-09T05:53:41.703Z,4.72
2022-10-09T05:56:11.651Z,4.75
2022-10-09T05:58:38.538Z,5.15
2022-10-09T06:01:05.431Z,4.55
2022-10-09T06:03:32.548Z,4.10
2022-10-09T06:06:00.786Z,4.13
2022-10-09T06:08:28.023Z,4.38
2022-10-09T06:10:54.941Z,3.70
2022-10-09T06:13:21.816Z,4.43
2022-10-09T06:15:52.582Z,4.70
2022-10-09T06:18:19.415Z,4.53
2022-10-09T06:20:59.632Z,3.83
2022-10-09T06:23:26.881Z,4.13
2022-10-09T06:25:54.409Z,4.32
2022-10-09T06:28:21.351Z,4.20
2022-10-09T06:30:48.321Z,4.65
2022-10-09T06:33:15.314Z,4.20
2022-10-09T06:35:42.361Z,4.38
2022-10-09T06:38:09.327Z,4.30
2022-10-09T06:40:36.803Z,4.55
2022-10-09T06:43:04.332Z,4.15
2022-10-09T06:45:31.658Z,4.65
2022-10-09T06:47:58.447Z,4.72
2022-10-09T06:50:25.237Z,4.88
2022-10-09T06:52:52.020Z,5.43
2022-10-09T06:55:18.908Z,4.43
2022-10-09T06:57:45.723Z,4.57
2022-10-09T07:00:13.236Z,4.25
2022-10-09T07:02:44.020Z,4.45
2022-10-09T07:05:11.184Z,4.45
2022-10-09T07:07:41.480Z,4.15
2022-10-09T07:10:08.898Z,4.97
2022-10-09T07:12:38.737Z,4.85
2022-10-09T07:15:06.418Z,4.80
2022-10-09T07:17:33.254Z,4.90
2022-10-09T07:20:01.355Z,4.10
2022-10-09T07:22:29.989Z,4.32
2022-10-09T07:24:56.822Z,4.38
2022-10-09T07:27:23.824Z,3.97
2022-10-09T07:29:50.619Z,4.40
2022-10-09T07:32:17.391Z,3.70
2022-10-09T07:34:44.259Z,3.88
2022-10-09T07:37:11.045Z,4.40
2022-10-09T07:39:40.580Z,4.68
2022-10-09T07:42:09.762Z,3.90
2022-10-09T07:44:36.676Z,4.15
2022-10-09T07:47:03.561Z,3.30
2022-10-09T07:49:30.430Z,4.30
2022-10-09T07:51:57.194Z,4.22
2022-10-09T07:54:24.121Z,4.28
2022-10-09T07:56:51.004Z,4.30
2022-10-09T07:59:17.940Z,4.57
2022-10-09T08:01:45.022Z,4.65
2022-10-09T08:04:11.922Z,4.03
2022-10-09T08:06:39.103Z,4.75
2022-10-09T08:09:06.655Z,5.25
2022-10-09T08:11:33.910Z,4.43
2022-10-09T08:14:00.838Z,4.07
2022-10-09T08:16:27.950Z,4.75
2022-10-09T08:18:58.569Z,4.05
2022-10-09T08:23:54.193Z,4.75
2022-10-09T08:26:22.055Z,4.05
2022-10-09T08:28:52.866Z,4.30
2022-10-09T08:31:20.244Z,3.90
2022-10-09T08:33:47.174Z,3.67
2022-10-09T08:36:17.385Z,3.95
2022-10-09T08:38:48.333Z,4.47
2022-10-09T08:41:27.342Z,4.35
2022-10-09T08:44:14.424Z,3.80
2022-10-09T08:46:41.227Z,4.55
2022-10-09T08:49:17.878Z,4.30
2022-10-09T08:51:46.389Z,4.30
2022-10-09T08:54:22.790Z,4.38
2022-10-09T08:56:49.898Z,4.10
2022-10-09T08:59:16.757Z,3.85
2022-10-09T09:01:54.125Z,3.88
2022-10-09T09:04:50.020Z,4.55
2022-10-09T09:07:19.214Z,4.65
2022-10-09T09:09:46.174Z,3.83
2022-10-09T09:12:26.645Z,3.95
2022-10-09T09:14:53.462Z,3.97
2022-10-09T09:17:43.547Z,3.88
2022-10-09T09:20:13.325Z,4.22
2022-10-09T09:22:41.572Z,4.27
2022-10-09T09:25:25.031Z,3.88
2022-10-09T09:27:53.193Z,4.57
2022-10-09T09:30:20.073Z,3.88
2022-10-09T09:32:55.319Z,3.65
2022-10-09T09:35:25.081Z,3.60
2022-10-09T09:37:52.485Z,3.60
2022-10-09T09:40:41.363Z,4.10
2022-10-09T09:43:13.904Z,3.80
2022-10-09T09:45:41.212Z,3.97
2022-10-09T09:48:12.818Z,3.80
2022-10-09T09:50:50.401Z,3.75
2022-10-09T09:53:22.947Z,3.50
2022-10-09T09:55:53.793Z,3.58
2022-10-09T09:58:21.250Z,3.95
2022-10-09T10:00:58.095Z,3.55
2022-10-09T10:03:25.657Z,4.00
2022-10-09T10:05:52.980Z,4.10
2022-10-09T10:08:30.744Z,3.55
2022-10-09T10:10:59.738Z,3.75
2022-10-09T10:13:32.633Z,4.00
2022-10-09T10:15:59.770Z,4.10
2022-10-09T10:18:28.818Z,4.60
2022-10-09T10:20:56.881Z,4.05
2022-10-09T10:23:23.665Z,4.22
2022-10-09T10:25:52.023Z,4.40
2022-10-09T10:28:21.117Z,4.10
2022-10-09T10:30:48.812Z,4.20
2022-10-09T10:33:15.619Z,4.00
2022-10-09T10:35:43.478Z,4.32
2022-10-09T10:38:13.474Z,4.05
2022-10-09T10:40:47.121Z,4.47
2022-10-09T10:43:16.080Z,4.03
2022-10-09T10:45:42.910Z,4.38
2022-10-09T10:48:19.727Z,3.95
2022-10-09T10:50:57.681Z,4.55
2022-10-09T10:53:48.388Z,3.92
2022-10-09T10:56:23.568Z,3.78
2022-10-09T10:59:09.109Z,4.35
2022-10-09T11:01:47.732Z,3.38
2022-10-09T11:04:14.636Z,3.78
2022-10-09T11:06:48.812Z,3.85
2022-10-09T11:09:32.112Z,3.80
2022-10-09T11:12:15.611Z,3.90
2022-10-09T11:14:57.512Z,3.80
2022-10-09T11:17:30.276Z,4.50
2022-10-09T11:19:59.977Z,4.18
2022-10-09T11:22:29.662Z,3.97
2022-10-09T11:25:02.304Z,4.32
2022-10-09T11:27:44.520Z,3.90
2022-10-09T11:30:15.584Z,3.65
2022-10-09T11:32:54.413Z,4.05
2022-10-09T11:35:22.635Z,4.28
2022-10-09T11:38:01.848Z,3.63
2022-10-09T11:40:38.351Z,4.05
2022-10-09T11:43:11.185Z,3.92
2022-10-09T11:45:50.889Z,3.80
2022-10-09T11:48:31.139Z,3.85
2022-10-09T11:51:01.059Z,3.78
2022-10-09T11:53:29.011Z,4.23
2022-10-09T11:56:06.337Z,3.45
2022-10-09T11:58:33.708Z,3.88
2022-10-09T12:01:21.777Z,3.65
2022-10-09T12:04:00.748Z,3.53
2022-10-09T12:06:28.080Z,3.45
2022-10-09T12:08:54.974Z,3.95
2022-10-09T12:11:22.581Z,3.58
2022-10-09T12:13:49.439Z,3.30
2022-10-09T12:16:36.900Z,3.80
2022-10-09T12:19:23.626Z,4.13
2022-10-09T12:21:52.856Z,3.88
2022-10-09T12:24:22.798Z,3.92
2022-10-09T12:26:50.884Z,4.25
2022-10-09T12:29:40.718Z,4.05
2022-10-09T12:32:12.924Z,4.65
2022-10-09T12:34:47.725Z,5.75
2022-10-09T12:37:14.502Z,5.10
2022-10-09T12:39:41.535Z,5.10
2022-10-09T12:42:12.775Z,5.40
2022-10-09T12:44:42.788Z,5.90
2022-10-09T12:47:15.305Z,6.15
2022-10-09T12:49:42.173Z,6.00
2022-10-09T12:52:16.470Z,5.88
2022-10-09T12:54:44.514Z,5.90
2022-10-09T12:57:17.165Z,5.45
2022-10-09T12:59:45.077Z,5.80
2022-10-09T13:02:15.811Z,5.15
2022-10-09T13:04:43.314Z,5.63
2022-10-09T13:07:21.233Z,5.38
2022-10-09T13:09:48.400Z,5.38
2022-10-09T13:12:28.132Z,4.70
2022-10-09T13:14:57.124Z,4.78
2022-10-09T13:17:24.756Z,4.53
2022-10-09T13:19:53.158Z,4.80
2022-10-09T13:22:23.987Z,4.05
2022-10-09T13:24:53.110Z,4.80
2022-10-09T13:27:21.077Z,4.00
2022-10-09T13:29:48.267Z,4.18
2022-10-09T13:32:15.756Z,3.55
2022-10-09T13:34:42.760Z,3.58
2022-10-09T13:37:17.906Z,3.35
2022-10-09T13:39:44.769Z,3.90
2022-10-09T13:42:13.703Z,3.72
2022-10-09T13:44:40.546Z,3.17
2022-10-09T13:47:07.424Z,3.60
2022-10-09T13:49:34.254Z,3.25
2022-10-09T13:52:01.084Z,2.92
2022-10-09T13:54:27.894Z,2.63
2022-10-09T13:56:54.703Z,3.25
2022-10-09T13:59:21.685Z,2.50
2022-10-09T14:01:48.544Z,3.25
2022-10-09T14:04:15.471Z,3.30
2022-10-09T14:06:42.317Z,3.17
2022-10-09T14:09:09.978Z,4.30
2022-10-09T14:11:36.782Z,3.30
2022-10-09T14:14:03.742Z,3.13
2022-10-09T14:16:30.784Z,3.40
2022-10-09T14:18:58.826Z,3.75
2022-10-09T14:21:25.881Z,3.50
2022-10-09T14:23:57.128Z,3.55
2022-10-09T14:26:24.398Z,3.83
2022-10-09T14:28:51.389Z,4.10
2022-10-09T14:31:18.408Z,4.07
2022-10-09T14:33:45.714Z,4.57
2022-10-09T14:36:13.749Z,4.63
2022-10-09T14:38:40.894Z,4.13
2022-10-09T14:41:09.224Z,9.15
2022-10-09T14:43:36.160Z,4.82
2022-10-09T14:46:03.066Z,4.68
2022-10-09T14:48:29.933Z,4.88
2022-10-09T14:50:56.809Z,5.07
2022-10-09T14:53:23.619Z,4.97
2022-10-09T14:55:50.403Z,4.88
2022-10-09T14:58:17.200Z,5.63
2022-10-09T15:00:47.749Z,5.90
2022-10-09T15:03:14.589Z,6.55
2022-10-09T15:05:41.315Z,6.05
2022-10-09T15:08:08.069Z,6.88
2022-10-09T15:10:35.003Z,6.43
2022-10-09T15:13:01.831Z,7.13
2022-10-09T15:15:32.594Z,6.57
2022-10-09T15:17:59.620Z,6.18
2022-10-09T15:20:26.414Z,7.32
2022-10-09T15:22:53.260Z,9.18
2022-10-09T15:25:20.151Z,7.72
2022-10-09T15:27:50.145Z,7.68
2022-10-09T15:30:19.390Z,8.25
2022-10-09T15:32:46.082Z,8.18
2022-10-09T15:35:12.820Z,7.35
2022-10-09T15:37:39.710Z,8.07
2022-10-09T15:40:06.905Z,8.23
2022-10-09T15:42:33.744Z,8.35
2022-10-09T15:45:00.543Z,7.75
2022-10-09T15:47:49.890Z,8.25
2022-10-09T15:50:14.239Z,7.28
2022-10-09T15:52:41.072Z,8.43
2022-10-09T15:55:08.051Z,8.13
2022-10-09T15:57:34.849Z,8.10
2022-10-09T16:00:01.747Z,7.90
2022-10-09T16:02:31.134Z,9.35
2022-10-09T16:04:58.004Z,8.07
2022-10-09T16:07:24.894Z,8.80
2022-10-09T16:09:51.692Z,8.40
2022-10-09T16:12:18.566Z,8.63
2022-10-09T16:14:45.403Z,9.55
2022-10-09T16:17:12.154Z,8.27
2022-10-09T16:19:39.023Z,7.93
2022-10-09T16:22:06.139Z,7.78
2022-10-09T16:24:33.043Z,8.18
2022-10-09T16:26:59.842Z,7.68
2022-10-09T16:29:26.726Z,7.95
2022-10-09T16:31:55.825Z,8.15
2022-10-09T16:34:22.835Z,14.98
2022-10-09T16:36:49.748Z,7.90
2022-10-09T16:39:17.389Z,7.43
2022-10-09T16:41:44.302Z,8.25
2022-10-09T16:44:14.288Z,7.57
2022-10-09T16:46:41.159Z,8.40
2022-10-09T16:49:13.584Z,7.80
2022-10-09T16:51:40.513Z,8.25
2022-10-09T16:54:07.467Z,8.55
2022-10-09T16:56:36.457Z,8.25
2022-10-09T16:59:04.888Z,8.40
2022-10-09T17:01:32.544Z,7.13
2022-10-09T17:04:00.029Z,8.00
2022-10-09T17:06:27.698Z,7.20
2022-10-09T17:08:55.754Z,8.00
2022-10-09T17:11:23.050Z,7.03
2022-10-09T17:13:49.920Z,7.28
2022-10-09T17:16:20.810Z,7.55
2022-10-09T17:18:48.248Z,7.07
2022-10-09T17:21:16.187Z,6.93
2022-10-09T17:23:43.053Z,6.85
2022-10-09T17:26:12.023Z,7.32
2022-10-09T17:28:39.352Z,8.63
2022-10-09T17:31:07.519Z,8.40
2022-10-09T17:33:34.804Z,7.82
2022-10-09T17:36:02.160Z,8.23
2022-10-09T17:38:28.928Z,7.30
2022-10-09T17:40:55.718Z,6.93
2022-10-09T17:43:22.900Z,6.85
2022-10-09T17:45:49.947Z,8.35
2022-10-09T17:48:16.733Z,7.80
2022-10-09T17:50:53.432Z,8.05
2022-10-09T17:53:22.453Z,7.65
2022-10-09T17:55:50.584Z,7.25
2022-10-09T17:58:17.846Z,7.75
2022-10-09T18:00:45.068Z,9.00
2022-10-09T18:03:12.169Z,7.40
2022-10-09T18:05:46.296Z,7.40
2022-10-09T18:08:14.295Z,7.45
2022-10-09T18:10:41.263Z,6.70
2022-10-09T18:13:08.797Z,7.18
2022-10-09T18:15:39.532Z,7.60
2022-10-09T18:18:07.090Z,10.38
2022-10-09T18:20:37.905Z,7.13
2022-10-09T18:23:04.878Z,7.68
2022-10-09T18:25:32.030Z,7.50
2022-10-09T18:27:59.316Z,7.80
2022-10-09T18:30:27.477Z,7.40
2022-10-09T18:32:54.443Z,6.97
2022-10-09T18:35:21.432Z,7.63
2022-10-09T18:37:48.460Z,7.47
2022-10-09T18:40:16.944Z,7.05
2022-10-09T18:42:43.814Z,7.00
2022-10-09T18:45:12.834Z,6.78
2022-10-09T18:47:40.049Z,7.47
2022-10-09T18:50:09.233Z,8.05
2022-10-09T18:52:37.095Z,8.65
2022-10-09T18:55:05.739Z,7.18
2022-10-09T18:57:34.290Z,7.72
2022-10-09T19:00:01.946Z,7.20
2022-10-09T19:02:31.061Z,6.78
2022-10-09T19:04:58.161Z,7.15
2022-10-09T19:07:25.466Z,6.95
2022-10-09T19:09:56.969Z,7.53
2022-10-09T19:12:24.901Z,7.13
2022-10-09T19:14:52.026Z,6.80
2022-10-09T19:17:19.216Z,6.95
2022-10-09T19:19:46.135Z,6.65
2022-10-09T19:22:16.403Z,7.25
2022-10-09T19:24:44.957Z,6.82
2022-10-09T19:27:11.888Z,7.15
2022-10-09T19:29:38.810Z,7.15
2022-10-09T19:32:05.689Z,7.78
2022-10-09T19:34:32.662Z,6.82
2022-10-09T19:36:59.613Z,7.00
2022-10-09T19:39:26.669Z,6.90
2022-10-09T19:41:53.758Z,6.95
2022-10-09T19:44:21.284Z,7.07
2022-10-09T19:46:48.591Z,7.05
2022-10-09T19:49:15.404Z,7.82
2022-10-09T19:51:42.487Z,7.07
2022-10-09T19:54:10.182Z,6.55
2022-10-09T19:56:37.263Z,7.47
2022-10-09T19:59:05.582Z,7.15
2022-10-09T20:01:35.263Z,6.90
2022-10-09T20:04:04.096Z,6.97
2022-10-09T20:06:30.949Z,7.13
2022-10-09T20:08:57.799Z,6.97
2022-10-09T20:11:26.333Z,6.63
2022-10-09T20:13:56.187Z,6.97
2022-10-09T20:16:24.054Z,6.90
2022-10-09T20:18:50.892Z,6.95
2022-10-09T20:21:18.179Z,6.97
2022-10-09T20:23:45.088Z,7.07
2022-10-09T20:26:13.595Z,6.63
2022-10-09T20:28:40.599Z,6.47
2022-10-09T20:31:08.425Z,6.05
2022-10-09T20:33:35.979Z,6.38
2022-10-09T20:36:03.174Z,6.38
2022-10-09T20:38:30.145Z,5.95
2022-10-09T20:41:04.063Z,6.05
2022-10-09T20:43:30.983Z,6.30
2022-10-09T20:45:57.815Z,6.32
2022-10-09T20:48:24.774Z,6.28
2022-10-09T20:50:51.683Z,6.13
2022-10-09T20:53:18.664Z,6.10
2022-10-09T20:55:45.533Z,6.22
2022-10-09T20:58:12.357Z,6.65
2022-10-09T21:00:43.115Z,5.57
2022-10-09T21:03:12.422Z,5.47
2022-10-09T21:05:40.810Z,5.55
2022-10-09T21:08:07.770Z,5.68
2022-10-09T21:10:34.680Z,5.38
2022-10-09T21:13:01.562Z,5.43
2022-10-09T21:15:28.531Z,5.45
2022-10-09T21:17:55.429Z,5.53
2022-10-09T21:20:22.355Z,5.30
2022-10-09T21:22:49.616Z,5.78
2022-10-09T21:25:16.709Z,5.03
2022-10-09T21:27:43.640Z,6.00
2022-10-09T21:30:10.827Z,5.53
2022-10-09T21:32:37.688Z,5.78
2022-10-09T21:35:04.734Z,6.00
2022-10-09T21:37:35.568Z,5.13
2022-10-09T21:40:04.398Z,5.35
2022-10-09T21:42:31.410Z,4.63
2022-10-09T21:44:58.347Z,5.13
2022-10-09T21:47:25.377Z,5.43
2022-10-09T21:49:52.238Z,5.63
2022-10-09T21:52:19.120Z,5.50
2022-10-09T21:54:45.974Z,4.72
2022-10-09T21:57:12.871Z,5.18
2022-10-09T21:59:39.979Z,4.53
2022-10-09T22:02:06.752Z,3.70
2022-10-09T22:04:33.733Z,4.07
2022-10-09T22:07:00.623Z,4.10
2022-10-09T22:09:27.612Z,4.20
2022-10-09T22:11:54.529Z,4.38
2022-10-09T22:14:21.320Z,4.13
2022-10-09T22:16:48.318Z,3.88
2022-10-09T22:19:15.165Z,3.72
2022-10-09T22:21:42.222Z,3.63
2022-10-09T22:24:09.462Z,4.25
2022-10-09T22:26:36.341Z,3.20
2022-10-09T22:29:03.209Z,3.95
2022-10-09T22:31:30.117Z,3.72
2022-10-09T22:33:57.756Z,4.60
2022-10-09T22:36:25.761Z,3.80
2022-10-09T22:38:53.389Z,3.80
2022-10-09T22:41:21.013Z,3.90
2022-10-09T22:43:49.336Z,3.95
2022-10-09T22:46:17.682Z,4.35
2022-10-09T22:48:44.661Z,4.43
2022-10-09T22:51:12.547Z,4.82
2022-10-09T22:53:39.849Z,4.97
2022-10-09T22:56:07.391Z,5.18
2022-10-09T22:58:34.542Z,5.03
2022-10-09T23:01:08.690Z,4.60
2022-10-09T23:03:35.909Z,5.05
2022-10-09T23:06:10.321Z,5.30
2022-10-09T23:08:38.390Z,5.25
2022-10-09T23:11:05.618Z,5.38
2022-10-09T23:13:32.723Z,5.32
2022-10-09T23:16:00.432Z,5.65
2022-10-09T23:18:27.607Z,5.45
2022-10-09T23:20:54.533Z,4.90
2022-10-09T23:23:21.358Z,5.25
2022-10-09T23:25:48.295Z,6.07
2022-10-09T23:28:15.161Z,5.03
2022-10-09T23:30:42.095Z,4.72
2022-10-09T23:33:08.960Z,5.22
2022-10-09T23:35:40.255Z,4.95
2022-10-09T23:38:07.443Z,4.75
2022-10-09T23:40:34.460Z,4.95
2022-10-09T23:43:01.312Z,4.32
2022-10-09T23:45:28.230Z,4.47
2022-10-09T23:47:55.039Z,4.18
2022-10-09T23:50:21.928Z,4.43
2022-10-09T23:52:48.999Z,4.05
2022-10-09T23:55:16.154Z,4.28
2022-10-09T23:57:43.070Z,4.22
